CSAV Brasilia — A8VK7 — position and weather

sailwx.info

Track history (hours):
 
Tides and Currents Weather Stations Pressure Air Temp Water Temp Dewpoint Dewpoint Depression Visibility Wind Speed Wind Dir Waves Ship Positions

CSAV Brasilia

Last reported at 2015-Aug-30 01:16 UTC. Time now 2015-Aug-30 11:57 UTC.
Position N 50°30' E 000°05'.

Length 294 m; draft 10.2 m.

Type: Cargo ship. MMSI: 636092017.

Date/timePositionNaut miles runAvg speedWind from/ knotsBaromVisibWave heightAir tempDewpointWater temp
2015-Aug-30 01:16N 50°30' E 000°05'1217.3
2015-Aug-30 00:34N 50°34' E 000°23'1616.1
2015-Aug-29 23:34N 50°41' E 000°46'1515.0
2015-Aug-29 22:34N 50°49' E 001°06'1514.6
2015-Aug-29 21:33N 50°59' E 001°23'1717.4
2015-Aug-29 20:33N 51°11' E 001°43'1918.7
2015-Aug-29 19:33N 51°27' E 001°59'1818.2
2015-Aug-29 18:34N 51°40' E 002°20'1717.2
2015-Aug-29 17:34N 51°53' E 002°38'1615.4
2015-Aug-29 16:31N 52°02' E 002°59'1616.2
2015-Aug-29 15:33N 52°03' E 003°24'1515.2
2015-Aug-29 14:33N 52°04' E 003°49'10 9.6
2015-Aug-29 13:33N 51°60' E 004°02'2 2.3
2015-Aug-29 12:33N 51°58' E 004°04'0 0.0
2015-Aug-29 11:33N 51°58' E 004°04'0 0.0
2015-Aug-29 10:33N 51°58' E 004°04'0 0.0
2015-Aug-29 09:33N 51°58' E 004°04'0 0.0
2015-Aug-29 08:33N 51°58' E 004°04'0 0.0
2015-Aug-29 07:33N 51°58' E 004°04'0 0.0
2015-Aug-29 06:33N 51°58' E 004°04'0 0.0
2015-Aug-29 05:34N 51°58' E 004°04'0 0.0
2015-Aug-29 04:31N 51°58' E 004°04'1 1.2
2015-Aug-29 03:34N 51°59' E 004°05'1111.5
2015-Aug-29 02:33N 51°60' E 003°46'8 7.5
2015-Aug-29 01:33N 51°56' E 003°36'0 0.1
2015-Aug-29 00:32N 51°56' E 003°36'0 0.0
2015-Aug-28 23:32N 51°56' E 003°36'0 0.1
2015-Aug-28 20:20N 51°55' E 003°36'0 0.1
2015-Aug-28 17:26N 51°55' E 003°36'0 0.0
2015-Aug-28 14:08N 51°56' E 003°36'0 0.0
2015-Aug-28 13:32N 51°56' E 003°36'5 5.4
2015-Aug-28 12:33N 52°01' E 003°37'1010.4
2015-Aug-28 11:33N 52°08' E 003°25'1615.6
2015-Aug-28 10:32N 52°24' E 003°27'1716.9
2015-Aug-28 09:33N 52°40' E 003°35'1817.6
2015-Aug-28 08:33N 52°54' E 003°53'1918.3
2015-Aug-28 07:32N 53°06' E 004°15'1818.0
2015-Aug-28 06:33N 53°21' E 004°32'1616.2
2015-Aug-28 05:34N 53°32' E 004°52'1717.0
2015-Aug-28 04:34N 53°37' E 005°19'1716.7
2015-Aug-28 03:33N 53°42' E 005°46'1716.8
2015-Aug-28 02:33N 53°48' E 006°13'1817.6
2015-Aug-28 01:32N 53°52' E 006°42'1818.0
2015-Aug-28 00:33N 53°56' E 007°12'1717.0
2015-Aug-27 23:33N 53°58' E 007°40'1414.0
2015-Aug-27 22:33N 53°51' E 008°00'1716.8
2015-Aug-27 21:33N 53°40' E 008°22'8 8.4
2015-Aug-27 20:33N 53°34' E 008°32'0 0.0
2015-Aug-27 19:32N 53°34' E 008°32'0 0.0
2015-Aug-27 18:32N 53°34' E 008°32'0 0.0
2015-Aug-27 17:32N 53°34' E 008°32'0 0.0
2015-Aug-27 16:32N 53°34' E 008°32'0 0.0
2015-Aug-27 15:32N 53°34' E 008°32'0 0.0
2015-Aug-27 14:32N 53°34' E 008°32'0 0.0
2015-Aug-27 13:32N 53°34' E 008°32'0 0.0
2015-Aug-27 12:33N 53°34' E 008°32'0 0.0
2015-Aug-27 11:33N 53°34' E 008°32'0 0.0
2015-Aug-27 10:33N 53°34' E 008°32'0 0.0
2015-Aug-27 09:31N 53°34' E 008°32'0 0.0
2015-Aug-27 08:34N 53°34' E 008°32'0 0.0
2015-Aug-27 07:31N 53°34' E 008°32'0 0.0
2015-Aug-27 06:31N 53°34' E 008°32'0 0.0
2015-Aug-27 05:28N 53°34' E 008°32'0 0.0
2015-Aug-27 04:32N 53°34' E 008°32'0 0.0
2015-Aug-27 03:32N 53°34' E 008°32'0 0.0
2015-Aug-27 02:32N 53°35' E 008°32'3 3.3
2015-Aug-27 01:33N 53°37' E 008°29'1110.9
2015-Aug-27 00:34N 53°44' E 008°15'1110.9
2015-Aug-26 23:33N 53°51' E 008°01'1212.0
2015-Aug-26 22:33N 53°54' E 007°41'1313.3
2015-Aug-26 21:33N 53°53' E 007°18'1414.4
2015-Aug-26 20:33N 53°50' E 006°54'1414.5
2015-Aug-26 19:33N 53°46' E 006°31'1414.3
2015-Aug-26 18:33N 53°43' E 006°07'1414.3
2015-Aug-26 17:33N 53°39' E 005°44'1414.2
2015-Aug-26 16:33N 53°34' E 005°22'1413.5
2015-Aug-26 15:33N 53°29' E 005°00'1616.3
2015-Aug-26 14:33N 53°19' E 004°39'1814.9
2015-Aug-26 13:21N 53°04' E 004°23'1113.8
2015-Aug-26 12:34N 52°54' E 004°15'1413.6
2015-Aug-26 11:33N 52°43' E 004°02'1413.6
2015-Aug-26 10:33N 52°33' E 003°47'4113.7
2015-Aug-26 07:33N 51°55' E 003°23'2713.7
2015-Aug-26 05:33N 51°30' E 003°04'9 8.7
2015-Aug-26 04:34N 51°25' E 003°15'1413.6
2015-Aug-26 03:34N 51°26' E 003°37'1212.0
2015-Aug-26 02:33N 51°22' E 003°55'10 9.5
2015-Aug-26 01:33N 51°23' E 004°10'5 5.2
2015-Aug-26 00:34N 51°21' E 004°17'0 0.5
2015-Aug-25 23:33N 51°21' E 004°18'2 1.6
2015-Aug-25 22:29N 51°20' E 004°20'0 0.0
2015-Aug-25 21:32N 51°20' E 004°20'0 0.0
2015-Aug-25 20:32N 51°20' E 004°20'0 0.0
2015-Aug-25 19:32N 51°20' E 004°20'0 0.0
2015-Aug-25 18:32N 51°20' E 004°20'0 0.0
2015-Aug-25 17:32N 51°20' E 004°20'0 0.0
2015-Aug-25 16:32N 51°20' E 004°20'0 0.0
2015-Aug-25 15:29N 51°20' E 004°20'0 0.0
2015-Aug-25 14:32N 51°20' E 004°20'0 0.0
2015-Aug-25 13:32N 51°20' E 004°20'0 0.0
2015-Aug-25 12:32N 51°20' E 004°20'0 0.0
2015-Aug-25 11:32N 51°20' E 004°20'0 0.0
2015-Aug-25 10:32N 51°20' E 004°20'0 0.0
2015-Aug-25 09:33N 51°20' E 004°20'0 0.0
2015-Aug-25 08:31N 51°20' E 004°20'1 0.9
2015-Aug-25 07:33N 51°19' E 004°19'3 2.6
2015-Aug-25 06:32N 51°17' E 004°21'0 0.0
2015-Aug-25 05:32N 51°17' E 004°21'0 0.0
2015-Aug-25 04:32N 51°17' E 004°21'0 0.0
2015-Aug-25 03:32N 51°17' E 004°21'0 0.0
2015-Aug-25 02:32N 51°17' E 004°21'0 0.0
2015-Aug-25 01:32N 51°17' E 004°21'0 0.0
2015-Aug-25 00:32N 51°17' E 004°21'0 0.0
2015-Aug-24 23:32N 51°17' E 004°21'0 0.0
2015-Aug-24 22:32N 51°17' E 004°21'0 0.0
2015-Aug-24 21:29N 51°17' E 004°21'0 0.0
2015-Aug-24 20:32N 51°17' E 004°21'0 0.0
2015-Aug-24 19:32N 51°17' E 004°21'0 0.0
2015-Aug-24 18:32N 51°17' E 004°21'0 0.0
2015-Aug-24 17:29N 51°17' E 004°21'0 0.0
2015-Aug-24 16:32N 51°17' E 004°21'0 0.0
2015-Aug-24 15:32N 51°17' E 004°21'0 0.0
2015-Aug-24 14:32N 51°17' E 004°21'0 0.0
2015-Aug-24 13:32N 51°17' E 004°21'0 0.0
2015-Aug-24 12:29N 51°17' E 004°21'0 0.0
2015-Aug-24 11:32N 51°17' E 004°21'0 0.0
2015-Aug-24 10:29N 51°17' E 004°21'0 0.0
2015-Aug-24 09:32N 51°17' E 004°21'0 0.0
2015-Aug-24 08:32N 51°17' E 004°21'0 0.0
2015-Aug-24 07:32N 51°17' E 004°21'0 0.0
2015-Aug-24 06:32N 51°17' E 004°21'0 0.0
2015-Aug-24 05:32N 51°17' E 004°21'0 0.0
2015-Aug-24 04:32N 51°17' E 004°21'0 0.0
2015-Aug-24 03:32N 51°17' E 004°21'0 0.0
2015-Aug-24 02:32N 51°17' E 004°21'0 0.0
2015-Aug-24 01:32N 51°17' E 004°21'0 0.0
2015-Aug-24 00:32N 51°17' E 004°21'0 0.0
2015-Aug-23 23:32N 51°17' E 004°21'0 0.0
2015-Aug-23 22:32N 51°17' E 004°21'0 0.0
2015-Aug-23 21:32N 51°17' E 004°21'0 0.0
2015-Aug-23 20:32N 51°17' E 004°21'0 0.0
2015-Aug-23 19:32N 51°17' E 004°21'0 0.0
2015-Aug-23 18:32N 51°17' E 004°21'0 0.0
2015-Aug-23 17:32N 51°17' E 004°21'0 0.0
2015-Aug-23 16:29N 51°17' E 004°21'0 0.0
2015-Aug-23 15:32N 51°17' E 004°21'0 0.0
2015-Aug-23 14:32N 51°17' E 004°21'0 0.0
2015-Aug-23 13:32N 51°17' E 004°21'0 0.0
2015-Aug-23 12:32N 51°17' E 004°21'0 0.0
2015-Aug-23 11:32N 51°17' E 004°21'0 0.0
2015-Aug-23 10:32N 51°17' E 004°21'0 0.0
2015-Aug-23 09:29N 51°17' E 004°21'0 0.0
2015-Aug-23 08:32N 51°17' E 004°21'0 0.0
2015-Aug-23 07:32N 51°17' E 004°21'0 0.0
2015-Aug-23 06:29N 51°17' E 004°21'0 0.0
2015-Aug-23 05:32N 51°17' E 004°21'0 0.0
2015-Aug-23 04:32N 51°17' E 004°21'0 0.0
2015-Aug-23 03:32N 51°17' E 004°21'0 0.0
2015-Aug-23 02:32N 51°17' E 004°21'0 0.0
2015-Aug-23 01:32N 51°17' E 004°21'0 0.0
2015-Aug-23 00:32N 51°17' E 004°21'0 0.0
2015-Aug-22 23:32N 51°17' E 004°21'0 0.0
2015-Aug-22 22:32N 51°17' E 004°21'0 0.0
2015-Aug-22 21:32N 51°17' E 004°21'0 0.0
2015-Aug-22 20:32N 51°17' E 004°21'0 0.0
2015-Aug-22 19:32N 51°17' E 004°21'0 0.0
2015-Aug-22 18:32N 51°17' E 004°21'0 0.0
2015-Aug-22 17:32N 51°17' E 004°21'0 0.0
2015-Aug-22 16:32N 51°17' E 004°21'0 0.0
2015-Aug-22 15:32N 51°17' E 004°21'0 0.0
2015-Aug-22 14:32N 51°17' E 004°21'0 0.0
2015-Aug-22 13:32N 51°17' E 004°21'0 0.0
2015-Aug-22 12:32N 51°17' E 004°21'0 0.0
2015-Aug-22 11:32N 51°17' E 004°21'0 0.0
2015-Aug-22 10:32N 51°17' E 004°21'0 0.0
2015-Aug-22 09:32N 51°17' E 004°21'0 0.0
2015-Aug-22 08:32N 51°17' E 004°21'0 0.0
2015-Aug-22 07:32N 51°17' E 004°21'0 0.0
2015-Aug-22 06:32N 51°17' E 004°21'0 0.0
2015-Aug-22 05:32N 51°17' E 004°21'0 0.0
2015-Aug-22 04:32N 51°17' E 004°21'0 0.0
2015-Aug-22 03:32N 51°17' E 004°21'0 0.0
2015-Aug-22 02:32N 51°17' E 004°21'0 0.0
2015-Aug-22 01:32N 51°17' E 004°21'0 0.0
2015-Aug-22 00:32N 51°17' E 004°21'0 0.0
2015-Aug-21 23:32N 51°17' E 004°21'0 0.0
2015-Aug-21 22:29N 51°17' E 004°21'0 0.0
2015-Aug-21 21:32N 51°17' E 004°21'0 0.0
2015-Aug-21 20:32N 51°17' E 004°21'0 0.0
2015-Aug-21 19:32N 51°17' E 004°21'0 0.0
2015-Aug-21 18:32N 51°17' E 004°21'0 0.0
2015-Aug-21 17:29N 51°17' E 004°21'0 0.0
2015-Aug-21 16:32N 51°17' E 004°21'0 0.0
2015-Aug-21 15:32N 51°17' E 004°21'0 0.0
2015-Aug-21 14:32N 51°17' E 004°21'0 0.0
2015-Aug-21 13:29N 51°17' E 004°21'0 0.0
2015-Aug-21 12:32N 51°17' E 004°21'0 0.0
2015-Aug-21 11:32N 51°17' E 004°21'0 0.0
2015-Aug-21 10:32N 51°17' E 004°21'0 0.0
2015-Aug-21 09:32N 51°17' E 004°21'0 0.0
2015-Aug-21 08:32N 51°17' E 004°21'0 0.0
2015-Aug-21 07:29N 51°17' E 004°21'0 0.0
2015-Aug-21 06:32N 51°17' E 004°21'0 0.0
2015-Aug-21 05:32N 51°17' E 004°21'0 0.0
2015-Aug-21 04:32N 51°17' E 004°21'0 0.0
2015-Aug-21 03:32N 51°17' E 004°21'0 0.0
2015-Aug-21 02:29N 51°17' E 004°21'0 0.0
2015-Aug-21 01:32N 51°17' E 004°21'0 0.0
2015-Aug-21 00:32N 51°17' E 004°21'0 0.0
2015-Aug-20 23:32N 51°17' E 004°21'0 0.0
2015-Aug-20 22:32N 51°17' E 004°21'0 0.0
2015-Aug-20 21:32N 51°17' E 004°21'0 0.0
2015-Aug-20 20:32N 51°17' E 004°21'0 0.0
2015-Aug-20 19:32N 51°17' E 004°21'0 0.0
2015-Aug-20 18:32N 51°17' E 004°21'0 0.0
2015-Aug-20 17:32N 51°17' E 004°21'0 0.0
2015-Aug-20 16:32N 51°17' E 004°21'0 0.0
2015-Aug-20 15:32N 51°17' E 004°21'0 0.0
2015-Aug-20 14:32N 51°17' E 004°21'0 0.0
2015-Aug-20 13:32N 51°17' E 004°21'0 0.0
2015-Aug-20 12:32N 51°17' E 004°21'0 0.0
2015-Aug-20 11:32N 51°17' E 004°21'0 0.0
2015-Aug-20 10:26N 51°17' E 004°21'0 0.0
2015-Aug-20 09:32N 51°17' E 004°21'0 0.0
2015-Aug-20 08:32N 51°17' E 004°21'0 0.0
2015-Aug-20 07:32N 51°17' E 004°21'0 0.0
2015-Aug-20 06:32N 51°17' E 004°21'0 0.0
2015-Aug-20 05:32N 51°17' E 004°21'0 0.0
2015-Aug-20 04:32N 51°17' E 004°21'0 0.0
2015-Aug-20 03:32N 51°17' E 004°21'0 0.0
2015-Aug-20 02:32N 51°17' E 004°21'0 0.0
2015-Aug-20 01:32N 51°17' E 004°21'  
Track history (hours):
 
Tides and Currents Weather Stations Pressure Air Temp Water Temp Dewpoint Dewpoint Depression Visibility Wind Speed Wind Dir Waves Ship Positions

CSAV Brasilia

Last reported at 2015-Aug-30 01:16 UTC. Time now 2015-Aug-30 11:57 UTC.
Position N 50°30' E 000°05'.

Length 294 m; draft 10.2 m.

Type: Cargo ship. MMSI: 636092017.

Date/timePositionNaut miles runAvg speedWind from/ knotsBaromVisibWave heightAir tempDewpointWater temp
2015-Aug-30 01:16N 50°30' E 000°05'1217.3
2015-Aug-30 00:34N 50°34' E 000°23'1616.1
2015-Aug-29 23:34N 50°41' E 000°46'1515.0
2015-Aug-29 22:34N 50°49' E 001°06'1514.6
2015-Aug-29 21:33N 50°59' E 001°23'1717.4
2015-Aug-29 20:33N 51°11' E 001°43'1918.7
2015-Aug-29 19:33N 51°27' E 001°59'1818.2
2015-Aug-29 18:34N 51°40' E 002°20'1717.2
2015-Aug-29 17:34N 51°53' E 002°38'1615.4
2015-Aug-29 16:31N 52°02' E 002°59'1616.2
2015-Aug-29 15:33N 52°03' E 003°24'1515.2
2015-Aug-29 14:33N 52°04' E 003°49'10 9.6
2015-Aug-29 13:33N 51°60' E 004°02'2 2.3
2015-Aug-29 12:33N 51°58' E 004°04'0 0.0
2015-Aug-29 11:33N 51°58' E 004°04'0 0.0
2015-Aug-29 10:33N 51°58' E 004°04'0 0.0
2015-Aug-29 09:33N 51°58' E 004°04'0 0.0
2015-Aug-29 08:33N 51°58' E 004°04'0 0.0
2015-Aug-29 07:33N 51°58' E 004°04'0 0.0
2015-Aug-29 06:33N 51°58' E 004°04'0 0.0
2015-Aug-29 05:34N 51°58' E 004°04'0 0.0
2015-Aug-29 04:31N 51°58' E 004°04'1 1.2
2015-Aug-29 03:34N 51°59' E 004°05'1111.5
2015-Aug-29 02:33N 51°60' E 003°46'8 7.5
2015-Aug-29 01:33N 51°56' E 003°36'0 0.1
2015-Aug-29 00:32N 51°56' E 003°36'0 0.0
2015-Aug-28 23:32N 51°56' E 003°36'0 0.1
2015-Aug-28 20:20N 51°55' E 003°36'0 0.1
2015-Aug-28 17:26N 51°55' E 003°36'0 0.0
2015-Aug-28 14:08N 51°56' E 003°36'0 0.0
2015-Aug-28 13:32N 51°56' E 003°36'5 5.4
2015-Aug-28 12:33N 52°01' E 003°37'1010.4
2015-Aug-28 11:33N 52°08' E 003°25'1615.6
2015-Aug-28 10:32N 52°24' E 003°27'1716.9
2015-Aug-28 09:33N 52°40' E 003°35'1817.6
2015-Aug-28 08:33N 52°54' E 003°53'1918.3
2015-Aug-28 07:32N 53°06' E 004°15'1818.0
2015-Aug-28 06:33N 53°21' E 004°32'1616.2
2015-Aug-28 05:34N 53°32' E 004°52'1717.0
2015-Aug-28 04:34N 53°37' E 005°19'1716.7
2015-Aug-28 03:33N 53°42' E 005°46'1716.8
2015-Aug-28 02:33N 53°48' E 006°13'1817.6
2015-Aug-28 01:32N 53°52' E 006°42'1818.0
2015-Aug-28 00:33N 53°56' E 007°12'1717.0
2015-Aug-27 23:33N 53°58' E 007°40'1414.0
2015-Aug-27 22:33N 53°51' E 008°00'1716.8
2015-Aug-27 21:33N 53°40' E 008°22'8 8.4
2015-Aug-27 20:33N 53°34' E 008°32'0 0.0
2015-Aug-27 19:32N 53°34' E 008°32'0 0.0
2015-Aug-27 18:32N 53°34' E 008°32'0 0.0
2015-Aug-27 17:32N 53°34' E 008°32'0 0.0
2015-Aug-27 16:32N 53°34' E 008°32'0 0.0
2015-Aug-27 15:32N 53°34' E 008°32'0 0.0
2015-Aug-27 14:32N 53°34' E 008°32'0 0.0
2015-Aug-27 13:32N 53°34' E 008°32'0 0.0
2015-Aug-27 12:33N 53°34' E 008°32'0 0.0
2015-Aug-27 11:33N 53°34' E 008°32'0 0.0
2015-Aug-27 10:33N 53°34' E 008°32'0 0.0
2015-Aug-27 09:31N 53°34' E 008°32'0 0.0
2015-Aug-27 08:34N 53°34' E 008°32'0 0.0
2015-Aug-27 07:31N 53°34' E 008°32'0 0.0
2015-Aug-27 06:31N 53°34' E 008°32'0 0.0
2015-Aug-27 05:28N 53°34' E 008°32'0 0.0
2015-Aug-27 04:32N 53°34' E 008°32'0 0.0
2015-Aug-27 03:32N 53°34' E 008°32'0 0.0
2015-Aug-27 02:32N 53°35' E 008°32'3 3.3
2015-Aug-27 01:33N 53°37' E 008°29'1110.9
2015-Aug-27 00:34N 53°44' E 008°15'1110.9
2015-Aug-26 23:33N 53°51' E 008°01'1212.0
2015-Aug-26 22:33N 53°54' E 007°41'1313.3
2015-Aug-26 21:33N 53°53' E 007°18'1414.4
2015-Aug-26 20:33N 53°50' E 006°54'1414.5
2015-Aug-26 19:33N 53°46' E 006°31'1414.3
2015-Aug-26 18:33N 53°43' E 006°07'1414.3
2015-Aug-26 17:33N 53°39' E 005°44'1414.2
2015-Aug-26 16:33N 53°34' E 005°22'1413.5
2015-Aug-26 15:33N 53°29' E 005°00'1616.3
2015-Aug-26 14:33N 53°19' E 004°39'1814.9
2015-Aug-26 13:21N 53°04' E 004°23'1113.8
2015-Aug-26 12:34N 52°54' E 004°15'1413.6
2015-Aug-26 11:33N 52°43' E 004°02'1413.6
2015-Aug-26 10:33N 52°33' E 003°47'4113.7
2015-Aug-26 07:33N 51°55' E 003°23'2713.7
2015-Aug-26 05:33N 51°30' E 003°04'9 8.7
2015-Aug-26 04:34N 51°25' E 003°15'1413.6
2015-Aug-26 03:34N 51°26' E 003°37'1212.0
2015-Aug-26 02:33N 51°22' E 003°55'10 9.5
2015-Aug-26 01:33N 51°23' E 004°10'5 5.2
2015-Aug-26 00:34N 51°21' E 004°17'0 0.5
2015-Aug-25 23:33N 51°21' E 004°18'2 1.6
2015-Aug-25 22:29N 51°20' E 004°20'0 0.0
2015-Aug-25 21:32N 51°20' E 004°20'0 0.0
2015-Aug-25 20:32N 51°20' E 004°20'0 0.0
2015-Aug-25 19:32N 51°20' E 004°20'0 0.0
2015-Aug-25 18:32N 51°20' E 004°20'0 0.0
2015-Aug-25 17:32N 51°20' E 004°20'0 0.0
2015-Aug-25 16:32N 51°20' E 004°20'0 0.0
2015-Aug-25 15:29N 51°20' E 004°20'0 0.0
2015-Aug-25 14:32N 51°20' E 004°20'0 0.0
2015-Aug-25 13:32N 51°20' E 004°20'0 0.0
2015-Aug-25 12:32N 51°20' E 004°20'0 0.0
2015-Aug-25 11:32N 51°20' E 004°20'0 0.0
2015-Aug-25 10:32N 51°20' E 004°20'0 0.0
2015-Aug-25 09:33N 51°20' E 004°20'0 0.0
2015-Aug-25 08:31N 51°20' E 004°20'1 0.9
2015-Aug-25 07:33N 51°19' E 004°19'3 2.6
2015-Aug-25 06:32N 51°17' E 004°21'0 0.0
2015-Aug-25 05:32N 51°17' E 004°21'0 0.0
2015-Aug-25 04:32N 51°17' E 004°21'0 0.0
2015-Aug-25 03:32N 51°17' E 004°21'0 0.0
2015-Aug-25 02:32N 51°17' E 004°21'0 0.0
2015-Aug-25 01:32N 51°17' E 004°21'0 0.0
2015-Aug-25 00:32N 51°17' E 004°21'0 0.0
2015-Aug-24 23:32N 51°17' E 004°21'0 0.0
2015-Aug-24 22:32N 51°17' E 004°21'0 0.0
2015-Aug-24 21:29N 51°17' E 004°21'0 0.0
2015-Aug-24 20:32N 51°17' E 004°21'0 0.0
2015-Aug-24 19:32N 51°17' E 004°21'0 0.0
2015-Aug-24 18:32N 51°17' E 004°21'0 0.0
2015-Aug-24 17:29N 51°17' E 004°21'0 0.0
2015-Aug-24 16:32N 51°17' E 004°21'0 0.0
2015-Aug-24 15:32N 51°17' E 004°21'0 0.0
2015-Aug-24 14:32N 51°17' E 004°21'0 0.0
2015-Aug-24 13:32N 51°17' E 004°21'0 0.0
2015-Aug-24 12:29N 51°17' E 004°21'0 0.0
2015-Aug-24 11:32N 51°17' E 004°21'0 0.0
2015-Aug-24 10:29N 51°17' E 004°21'0 0.0
2015-Aug-24 09:32N 51°17' E 004°21'0 0.0
2015-Aug-24 08:32N 51°17' E 004°21'0 0.0
2015-Aug-24 07:32N 51°17' E 004°21'0 0.0
2015-Aug-24 06:32N 51°17' E 004°21'0 0.0
2015-Aug-24 05:32N 51°17' E 004°21'0 0.0
2015-Aug-24 04:32N 51°17' E 004°21'0 0.0
2015-Aug-24 03:32N 51°17' E 004°21'0 0.0
2015-Aug-24 02:32N 51°17' E 004°21'0 0.0
2015-Aug-24 01:32N 51°17' E 004°21'0 0.0
2015-Aug-24 00:32N 51°17' E 004°21'0 0.0
2015-Aug-23 23:32N 51°17' E 004°21'0 0.0
2015-Aug-23 22:32N 51°17' E 004°21'0 0.0
2015-Aug-23 21:32N 51°17' E 004°21'0 0.0
2015-Aug-23 20:32N 51°17' E 004°21'0 0.0
2015-Aug-23 19:32N 51°17' E 004°21'0 0.0
2015-Aug-23 18:32N 51°17' E 004°21'0 0.0
2015-Aug-23 17:32N 51°17' E 004°21'0 0.0
2015-Aug-23 16:29N 51°17' E 004°21'0 0.0
2015-Aug-23 15:32N 51°17' E 004°21'0 0.0
2015-Aug-23 14:32N 51°17' E 004°21'0 0.0
2015-Aug-23 13:32N 51°17' E 004°21'0 0.0
2015-Aug-23 12:32N 51°17' E 004°21'0 0.0
2015-Aug-23 11:32N 51°17' E 004°21'0 0.0
2015-Aug-23 10:32N 51°17' E 004°21'0 0.0
2015-Aug-23 09:29N 51°17' E 004°21'0 0.0
2015-Aug-23 08:32N 51°17' E 004°21'0 0.0
2015-Aug-23 07:32N 51°17' E 004°21'0 0.0
2015-Aug-23 06:29N 51°17' E 004°21'0 0.0
2015-Aug-23 05:32N 51°17' E 004°21'0 0.0
2015-Aug-23 04:32N 51°17' E 004°21'0 0.0
2015-Aug-23 03:32N 51°17' E 004°21'0 0.0
2015-Aug-23 02:32N 51°17' E 004°21'0 0.0
2015-Aug-23 01:32N 51°17' E 004°21'0 0.0
2015-Aug-23 00:32N 51°17' E 004°21'0 0.0
2015-Aug-22 23:32N 51°17' E 004°21'0 0.0
2015-Aug-22 22:32N 51°17' E 004°21'0 0.0
2015-Aug-22 21:32N 51°17' E 004°21'0 0.0
2015-Aug-22 20:32N 51°17' E 004°21'0 0.0
2015-Aug-22 19:32N 51°17' E 004°21'0 0.0
2015-Aug-22 18:32N 51°17' E 004°21'0 0.0
2015-Aug-22 17:32N 51°17' E 004°21'0 0.0
2015-Aug-22 16:32N 51°17' E 004°21'0 0.0
2015-Aug-22 15:32N 51°17' E 004°21'0 0.0
2015-Aug-22 14:32N 51°17' E 004°21'0 0.0
2015-Aug-22 13:32N 51°17' E 004°21'0 0.0
2015-Aug-22 12:32N 51°17' E 004°21'0 0.0
2015-Aug-22 11:32N 51°17' E 004°21'0 0.0
2015-Aug-22 10:32N 51°17' E 004°21'0 0.0
2015-Aug-22 09:32N 51°17' E 004°21'0 0.0
2015-Aug-22 08:32N 51°17' E 004°21'0 0.0
2015-Aug-22 07:32N 51°17' E 004°21'0 0.0
2015-Aug-22 06:32N 51°17' E 004°21'0 0.0
2015-Aug-22 05:32N 51°17' E 004°21'0 0.0
2015-Aug-22 04:32N 51°17' E 004°21'0 0.0
2015-Aug-22 03:32N 51°17' E 004°21'0 0.0
2015-Aug-22 02:32N 51°17' E 004°21'0 0.0
2015-Aug-22 01:32N 51°17' E 004°21'0 0.0
2015-Aug-22 00:32N 51°17' E 004°21'0 0.0
2015-Aug-21 23:32N 51°17' E 004°21'0 0.0
2015-Aug-21 22:29N 51°17' E 004°21'0 0.0
2015-Aug-21 21:32N 51°17' E 004°21'0 0.0
2015-Aug-21 20:32N 51°17' E 004°21'0 0.0
2015-Aug-21 19:32N 51°17' E 004°21'0 0.0
2015-Aug-21 18:32N 51°17' E 004°21'0 0.0
2015-Aug-21 17:29N 51°17' E 004°21'0 0.0
2015-Aug-21 16:32N 51°17' E 004°21'0 0.0
2015-Aug-21 15:32N 51°17' E 004°21'0 0.0
2015-Aug-21 14:32N 51°17' E 004°21'0 0.0
2015-Aug-21 13:29N 51°17' E 004°21'0 0.0
2015-Aug-21 12:32N 51°17' E 004°21'0 0.0
2015-Aug-21 11:32N 51°17' E 004°21'0 0.0
2015-Aug-21 10:32N 51°17' E 004°21'0 0.0
2015-Aug-21 09:32N 51°17' E 004°21'0 0.0
2015-Aug-21 08:32N 51°17' E 004°21'0 0.0
2015-Aug-21 07:29N 51°17' E 004°21'0 0.0
2015-Aug-21 06:32N 51°17' E 004°21'0 0.0
2015-Aug-21 05:32N 51°17' E 004°21'0 0.0
2015-Aug-21 04:32N 51°17' E 004°21'0 0.0
2015-Aug-21 03:32N 51°17' E 004°21'0 0.0
2015-Aug-21 02:29N 51°17' E 004°21'0 0.0
2015-Aug-21 01:32N 51°17' E 004°21'0 0.0
2015-Aug-21 00:32N 51°17' E 004°21'0 0.0
2015-Aug-20 23:32N 51°17' E 004°21'0 0.0
2015-Aug-20 22:32N 51°17' E 004°21'0 0.0
2015-Aug-20 21:32N 51°17' E 004°21'0 0.0
2015-Aug-20 20:32N 51°17' E 004°21'0 0.0
2015-Aug-20 19:32N 51°17' E 004°21'0 0.0
2015-Aug-20 18:32N 51°17' E 004°21'0 0.0
2015-Aug-20 17:32N 51°17' E 004°21'0 0.0
2015-Aug-20 16:32N 51°17' E 004°21'0 0.0
2015-Aug-20 15:32N 51°17' E 004°21'0 0.0
2015-Aug-20 14:32N 51°17' E 004°21'0 0.0
2015-Aug-20 13:32N 51°17' E 004°21'0 0.0
2015-Aug-20 12:32N 51°17' E 004°21'0 0.0
2015-Aug-20 11:32N 51°17' E 004°21'0 0.0
2015-Aug-20 10:26N 51°17' E 004°21'0 0.0
2015-Aug-20 09:32N 51°17' E 004°21'0 0.0
2015-Aug-20 08:32N 51°17' E 004°21'0 0.0
2015-Aug-20 07:32N 51°17' E 004°21'0 0.0
2015-Aug-20 06:32N 51°17' E 004°21'0 0.0
2015-Aug-20 05:32N 51°17' E 004°21'0 0.0
2015-Aug-20 04:32N 51°17' E 004°21'0 0.0
2015-Aug-20 03:32N 51°17' E 004°21'0 0.0
2015-Aug-20 02:32N 51°17' E 004°21'0 0.0
2015-Aug-20 01:32N 51°17' E 004°21'  

Dump ship's entire track history